Flight Track Log - Related Links

Times and Time Zones

All times are in EDT time to prevent confusion due to time zone crossing. See the CTL16 flight status page for this flight to view local times or setup timezone preferences in your user account.

Time Position Orientation Groundspeed Altitude Reporting Facility
EDT Latitude Longitude Course Direction KTS km/h feet Rate Location/Type
Thu 20:59:01 39.3667 -84.5000 142° Southeast 97 180 1.200  Level Cincinnati TRACON
Thu 20:59:31 39.3500 -84.4833 142° Southeast 110 204 1.800 1.000 Climbing Cincinnati TRACON
Thu 21:00:31 39.3500 -84.4333 90° East 141 261 2.700 960 Climbing Cincinnati TRACON
Thu 21:01:11 39.3514 -84.4061 86° East 152 282 3.400 1.054 Climbing Indianapolis Center
Thu 21:01:45 39.3694 -84.3878 38° Northeast 147 272 4.000 1.065 Climbing Indianapolis Center
Thu 21:02:13 39.3808 -84.3719 47° Northeast 141 261 4.500 689 Climbing Indianapolis Center
Thu 21:02:46 39.3994 -84.3511 41° Northeast 144 267 4.700 590 Climbing Indianapolis Center
Thu 21:03:14 39.4108 -84.3344 49° Northeast 144 267 5.100 400 Climbing Indianapolis Center
Thu 21:03:46 39.4303 -84.3094 45° Northeast 162 299 5.100  Level Indianapolis Center
Thu 21:04:16 39.4439 -84.2886 50° Northeast 159 295 5.100  Level Indianapolis Center
Thu 21:04:41 39.4628 -84.2678 40° Northeast 187 346 5.100  Level Indianapolis Center
Thu 21:05:18 39.4822 -84.2411 47° Northeast 176 327 5.100  Level Indianapolis Center
Thu 21:05:41 39.5003 -84.2186 44° Northeast 190 352 5.100 -98 Level Indianapolis Center
Thu 21:06:19 39.5192 -84.1931 46° Northeast 184 341 5.000  Descending Indianapolis Center
Thu 21:06:42 39.5353 -84.1719 45° Northeast 185 343 5.100  Climbing Indianapolis Center
Thu 21:07:21 39.5556 -84.1461 44° Northeast 184 341 5.000 -82 Descending Indianapolis Center
Thu 21:07:55 39.5817 -84.1156 42° Northeast 183 340 5.000  Level Indianapolis Center
Thu 21:08:22 39.5933 -84.1003 45° Northeast 184 341 5.000  Level Indianapolis Center
Thu 21:08:50 39.6144 -84.0739 44° Northeast 181 335 5.000  Level Indianapolis Center
Thu 21:09:24 39.6303 -84.0567 40° Northeast 181 335 5.000  Level Indianapolis Center
Thu 21:09:50 39.6533 -84.0300 42° Northeast 181 335 5.000  Level Indianapolis Center
Thu 21:10:25 39.6672 -84.0106 47° Northeast 181 335 5.000  Level Indianapolis Center
Thu 21:10:51 39.6864 -83.9828 48° Northeast 177 328 5.000 97 Level Indianapolis Center
Thu 21:11:27 39.7081 -83.9564 43° Northeast 179 332 5.100  Climbing Indianapolis Center
Thu 21:11:52 39.7233 -83.9389 41° Northeast 176 327 5.000 -97 Descending Indianapolis Center
Thu 21:12:29 39.7453 -83.9125 43° Northeast 179 332 5.000 100 Level Indianapolis Center
Thu 21:12:52 39.7600 -83.8972 39° Northeast 177 328 5.100  Climbing Indianapolis Center
Thu 21:13:30 39.7836 -83.8719 39° Northeast 177 328 5.000 -98 Descending Indianapolis Center
Thu 21:13:53 39.7992 -83.8508 46° Northeast 181 335 5.000  Level Indianapolis Center
Thu 21:14:32 39.8192 -83.8253 44° Northeast 178 330 5.000  Level Indianapolis Center
Thu 21:14:53 39.8358 -83.8067 41° Northeast 180 333 5.000  Level Indianapolis Center
Thu 21:15:33 39.8581 -83.7806 42° Northeast 181 335 5.000  Level Indianapolis Center
Thu 21:15:54 39.8728 -83.7622 44° Northeast 183 340 5.000 97 Level Indianapolis Center
Thu 21:16:35 39.8969 -83.7375 38° Northeast 181 335 5.100  Climbing Indianapolis Center
Thu 21:16:55 39.9114 -83.7208 42° Northeast 181 335 5.000 -98 Descending Indianapolis Center
Thu 21:17:36 39.9342 -83.6900 46° Northeast 183 340 5.000  Level Indianapolis Center
Thu 21:17:55 39.9486 -83.6739 41° Northeast 183 340 5.000 97 Level Indianapolis Center
Thu 21:18:38 39.9744 -83.6489 37° Northeast 182 336 5.100 90 Climbing Indianapolis Center
Thu 21:19:02 39.9939 -83.6278 40° Northeast 181 335 5.100 -98 Level Indianapolis Center
Thu 21:19:39 40.0131 -83.6042 43° Northeast 182 336 5.000 -98 Descending Indianapolis Center
Thu 21:20:03 40.0306 -83.5833 42° Northeast 183 340 5.000  Level Indianapolis Center
Thu 21:20:41 40.0519 -83.5606 39° Northeast 182 336 5.000  Level Indianapolis Center
Thu 21:21:03 40.0689 -83.5444 36° Northeast 179 332 5.000 97 Level Indianapolis Center
Thu 21:21:43 40.0933 -83.5222 35° Northeast 180 333 5.100  Climbing Indianapolis Center
Thu 21:22:04 40.1117 -83.5061 34° Northeast 179 332 5.000  Descending Indianapolis Center
Thu 21:22:44 40.1353 -83.4836 36° Northeast 181 335 5.100  Climbing Indianapolis Center
Thu 21:23:05 40.1528 -83.4594 47° Northeast 191 354 5.000 -97 Descending Indianapolis Center
Thu 21:23:46 40.1719 -83.4342 45° Northeast 184 341 5.000 83 Level Indianapolis Center
Thu 21:24:17 40.1942 -83.4044 46° Northeast 185 343 5.100 98 Climbing Indianapolis Center
Thu 21:24:47 40.2094 -83.3867 42° Northeast 186 344 5.100  Level Indianapolis Center
Thu 21:25:18 40.2311 -83.3569 46° Northeast 181 335 5.100 -97 Level Indianapolis Center
Thu 21:25:49 40.2453 -83.3397 43° Northeast 184 341 5.000 -82 Descending Indianapolis Center
Thu 21:26:31 40.2750 -83.2994 46° Northeast 180 333 5.000  Level Indianapolis Center
Thu 21:26:50 40.2878 -83.2853 40° Northeast 182 336 5.000  Level Indianapolis Center
Thu 21:27:37 40.3142 -83.2494 46° Northeast 177 328 5.000 97 Level Indianapolis Center
Thu 21:27:52 40.3242 -83.2403 35° Northeast 180 333 5.100  Climbing Indianapolis Center
Thu 21:28:53 40.3583 -83.1972 44° Northeast 174 322 5.000  Descending Indianapolis Center
Thu 21:29:55 40.3922 -83.1556 43° Northeast 167 309 5.100 49 Climbing Indianapolis Center
Thu 21:30:56 40.4269 -83.1092 45° Northeast 174 322 5.100 -49 Level Indianapolis Center
Thu 21:31:58 40.4636 -83.0658 42° Northeast 176 327 5.000 -49 Descending Indianapolis Center
Thu 21:32:59 40.4978 -83.0219 44° Northeast 172 319 5.000 49 Level Indianapolis Center
Thu 21:34:00 40.5303 -82.9783 46° Northeast 165 306 5.100 49 Climbing Indianapolis Center
Thu 21:35:02 40.5489 -82.9200 67° East 169 312 5.100 -49 Level Indianapolis Center
Thu 21:36:03 40.5397 -82.8675 103° East 148 274 5.000  Descending Indianapolis Center
Thu 21:37:05 40.5342 -82.8175 98° East 145 269 5.100 49 Climbing Indianapolis Center
Thu 21:38:06 40.5644 -82.7708 49° Northeast 168 311 5.100 -49 Level Indianapolis Center
Thu 21:39:08 40.5997 -82.7258 44° Northeast 173 320 5.000 -49 Descending Indianapolis Center
Thu 21:40:09 40.6364 -82.6828 42° Northeast 176 327 5.000 49 Level Indianapolis Center
Thu 21:41:10 40.6794 -82.6286 44° Northeast 181 335 5.100 49 Climbing Indianapolis Center
Thu 21:42:12 40.7189 -82.5844 40° Northeast 184 341 5.100 44 Level Indianapolis Center
Thu 21:43:26 40.7633 -82.5322 42° Northeast 182 336 5.200 81 Climbing Cleveland Center

Login

Don't have an account? Register now (free) for customized features, flight alerts, and more!